Terminal Aerodrome Forecast
Issued by NWS Wilmington, OH

Current Version | Previous Version | Graphics & Text | Print | Product List | Glossary On
Versions: 1 2 3 4 5 6 7 8 9 10 11 12 13 14 15 16 17 18 19
000
FTUS41 KILN 170200 AAA
TAFDAY
TAF AMD
KDAY 170248Z 1703/1724 01003KT P6SM FEW035
     FM170600 00000KT 4SM BR SKC
     FM170900 00000KT 2SM BR SKC
     FM171300 00000KT 4SM BR SKC
     FM171400 VRB03KT P6SM SCT030
     FM171600 26004KT P6SM BKN035
     FM172300 34004KT P6SM BKN120=

USA.gov is the U.S. government's official web portal to all federal, state and local government web resources and services.